createdAt,value
2023-05-13T00:01:38.852Z,13.17
2023-05-13T00:04:08.811Z,13.18
2023-05-13T00:06:36.454Z,13.17
2023-05-13T00:09:04.503Z,13.20
2023-05-13T00:11:32.310Z,13.12
2023-05-13T00:13:59.782Z,13.21
2023-05-13T00:16:28.847Z,13.25
2023-05-13T00:18:56.488Z,13.27
2023-05-13T00:21:23.975Z,13.23
2023-05-13T00:23:51.488Z,13.25
2023-05-13T00:26:18.861Z,13.23
2023-05-13T00:28:49.141Z,13.09
2023-05-13T00:31:16.845Z,13.15
2023-05-13T00:33:45.062Z,13.16
2023-05-13T00:36:12.595Z,13.08
2023-05-13T00:38:44.105Z,13.06
2023-05-13T00:41:12.176Z,13.12
2023-05-13T00:43:39.593Z,13.06
2023-05-13T00:46:07.420Z,13.03
2023-05-13T00:48:34.851Z,13.06
2023-05-13T00:51:02.447Z,12.86
2023-05-13T00:53:32.558Z,12.92
2023-05-13T00:56:00.375Z,13.00
2023-05-13T00:58:27.711Z,12.99
2023-05-13T01:01:09.478Z,12.96
2023-05-13T01:03:46.379Z,13.05
2023-05-13T01:06:36.655Z,13.09
2023-05-13T01:09:18.559Z,13.01
2023-05-13T01:11:49.461Z,13.06
2023-05-13T01:14:27.625Z,12.97
2023-05-13T01:17:07.065Z,13.08
2023-05-13T01:19:49.741Z,13.10
2023-05-13T01:22:17.623Z,12.88
2023-05-13T01:24:45.956Z,12.94
2023-05-13T01:27:14.398Z,13.03
2023-05-13T01:29:42.218Z,12.84
2023-05-13T01:32:11.270Z,12.83
2023-05-13T01:34:40.855Z,12.95
2023-05-13T01:37:08.606Z,12.82
2023-05-13T01:39:39.574Z,12.85
2023-05-13T01:42:12.469Z,12.92
2023-05-13T01:44:40.890Z,12.94
2023-05-13T01:47:08.252Z,13.01
2023-05-13T01:49:36.067Z,12.81
2023-05-13T01:52:04.414Z,12.85
2023-05-13T01:54:32.520Z,12.74
2023-05-13T01:57:05.670Z,12.72
2023-05-13T01:59:33.188Z,12.60
2023-05-13T02:02:00.818Z,12.50
2023-05-13T02:04:28.484Z,12.42
2023-05-13T02:06:56.615Z,12.52
2023-05-13T02:09:24.368Z,12.46
2023-05-13T02:11:51.968Z,12.48
2023-05-13T02:14:19.459Z,12.49
2023-05-13T02:16:46.912Z,12.46
2023-05-13T02:19:14.348Z,12.41
2023-05-13T02:21:43.696Z,12.48
2023-05-13T02:24:11.324Z,12.47
2023-05-13T02:26:38.724Z,12.56
2023-05-13T02:29:06.308Z,12.49
2023-05-13T02:31:34.119Z,12.55
2023-05-13T02:34:03.622Z,12.48
2023-05-13T02:36:31.184Z,12.47
2023-05-13T02:38:58.925Z,12.33
2023-05-13T02:41:26.355Z,12.29
2023-05-13T02:43:54.212Z,12.31
2023-05-13T02:46:22.117Z,12.14
2023-05-13T02:48:49.524Z,12.29
2023-05-13T02:51:16.946Z,12.19
2023-05-13T02:53:44.376Z,12.20
2023-05-13T02:56:12.258Z,12.27
2023-05-13T02:58:39.695Z,12.24
2023-05-13T03:01:08.511Z,12.14
2023-05-13T03:03:36.171Z,12.12
2023-05-13T03:06:03.700Z,12.07
2023-05-13T03:08:31.399Z,11.89
2023-05-13T03:10:59.145Z,11.87
2023-05-13T03:13:26.522Z,11.89
2023-05-13T03:15:53.922Z,12.01
2023-05-13T03:18:21.420Z,11.93
2023-05-13T03:20:49.133Z,11.94
2023-05-13T03:23:16.573Z,12.00
2023-05-13T03:25:45.963Z,12.09
2023-05-13T03:28:13.378Z,11.98
2023-05-13T03:30:44.162Z,11.99
2023-05-13T03:33:16.063Z,11.89
2023-05-13T03:35:44.081Z,11.94
2023-05-13T03:38:11.417Z,11.98
2023-05-13T03:40:43.914Z,11.94
2023-05-13T03:43:11.407Z,11.95
2023-05-13T03:45:41.821Z,11.92
2023-05-13T03:48:15.440Z,11.60
2023-05-13T03:50:43.169Z,11.70
2023-05-13T03:53:11.514Z,11.70
2023-05-13T03:55:39.910Z,11.71
2023-05-13T03:58:15.623Z,11.75
2023-05-13T04:00:46.682Z,11.79
2023-05-13T04:03:18.983Z,11.76
2023-05-13T04:05:46.979Z,11.85
2023-05-13T04:08:15.113Z,11.75
2023-05-13T04:10:44.097Z,11.75
2023-05-13T04:13:11.657Z,11.78
2023-05-13T04:15:39.104Z,11.63
2023-05-13T04:18:06.680Z,11.63
2023-05-13T04:20:38.061Z,11.63
2023-05-13T04:23:05.995Z,11.65
2023-05-13T04:25:35.191Z,11.73
2023-05-13T04:28:02.999Z,11.71
2023-05-13T04:30:35.852Z,11.75
2023-05-13T04:33:03.651Z,11.71
2023-05-13T04:35:31.787Z,11.78
2023-05-13T04:38:01.945Z,11.73
2023-05-13T04:40:30.746Z,11.77
2023-05-13T04:43:02.311Z,11.77
2023-05-13T04:45:33.795Z,11.90
2023-05-13T04:48:01.864Z,11.80
2023-05-13T04:50:29.964Z,11.68
2023-05-13T04:52:58.229Z,11.66
2023-05-13T04:55:27.555Z,11.84
2023-05-13T04:57:56.298Z,11.78
2023-05-13T05:00:24.293Z,11.92
2023-05-13T05:02:52.441Z,11.95
2023-05-13T05:05:20.419Z,12.02
2023-05-13T05:07:47.784Z,11.97
2023-05-13T05:10:15.721Z,11.85
2023-05-13T05:12:48.774Z,11.85
2023-05-13T05:15:16.255Z,11.85
2023-05-13T05:17:47.202Z,12.03
2023-05-13T05:20:15.050Z,12.05
2023-05-13T05:22:43.383Z,12.13
2023-05-13T05:25:12.700Z,12.08
2023-05-13T05:27:40.194Z,12.15
2023-05-13T05:30:10.261Z,12.24
2023-05-13T05:32:39.085Z,12.24
2023-05-13T05:35:07.875Z,12.38
2023-05-13T05:37:35.507Z,12.43
2023-05-13T05:40:07.039Z,12.40
2023-05-13T05:42:38.087Z,12.46
2023-05-13T05:45:06.161Z,12.50
2023-05-13T05:47:33.549Z,12.54
2023-05-13T05:50:01.360Z,12.54
2023-05-13T05:52:28.784Z,12.63
2023-05-13T05:54:56.290Z,12.68
2023-05-13T05:57:23.686Z,12.71
2023-05-13T05:59:51.284Z,12.77
2023-05-13T06:02:18.671Z,12.75
2023-05-13T06:04:46.283Z,12.75
2023-05-13T06:07:14.165Z,12.85
2023-05-13T06:09:42.447Z,12.94
2023-05-13T06:12:10.922Z,13.03
2023-05-13T06:14:38.493Z,13.04
2023-05-13T06:17:05.844Z,13.02
2023-05-13T06:19:33.267Z,13.17
2023-05-13T06:22:03.277Z,13.34
2023-05-13T06:24:31.326Z,13.25
2023-05-13T06:26:58.685Z,13.17
2023-05-13T06:29:26.284Z,13.13
2023-05-13T06:31:54.226Z,13.28
2023-05-13T06:34:21.828Z,13.34
2023-05-13T06:36:49.598Z,13.31
2023-05-13T06:39:17.491Z,13.37
2023-05-13T06:41:45.673Z,13.62
2023-05-13T06:44:28.722Z,13.80
2023-05-13T06:46:56.408Z,13.81
2023-05-13T06:49:26.508Z,13.88
2023-05-13T06:51:54.753Z,13.84
2023-05-13T06:54:22.153Z,13.81
2023-05-13T06:56:49.999Z,13.94
2023-05-13T06:59:17.607Z,13.98
2023-05-13T07:01:44.994Z,13.89
2023-05-13T07:04:12.638Z,13.90
2023-05-13T07:06:40.320Z,14.04
2023-05-13T07:09:09.740Z,14.04
2023-05-13T07:11:37.526Z,14.09
2023-05-13T07:14:04.941Z,14.07
2023-05-13T07:16:32.396Z,13.97
2023-05-13T07:19:00.510Z,14.03
2023-05-13T07:21:27.941Z,14.04
2023-05-13T07:23:58.542Z,14.09
2023-05-13T07:26:26.125Z,14.07
2023-05-13T07:28:53.799Z,14.17
2023-05-13T07:31:21.334Z,14.16
2023-05-13T07:33:48.985Z,14.25
2023-05-13T07:36:25.623Z,14.37
2023-05-13T07:38:53.686Z,14.30
2023-05-13T07:41:21.566Z,14.40
2023-05-13T07:43:49.440Z,14.25
2023-05-13T07:46:16.923Z,14.14
2023-05-13T07:48:44.549Z,14.33
2023-05-13T07:51:18.480Z,14.45
2023-05-13T07:53:47.113Z,14.52
2023-05-13T07:56:14.632Z,14.46
2023-05-13T07:58:42.067Z,14.54
2023-05-13T08:01:09.468Z,14.68
2023-05-13T08:03:37.173Z,14.76
2023-05-13T08:06:04.899Z,14.87
2023-05-13T08:08:32.674Z,14.87
2023-05-13T08:11:00.203Z,14.92
2023-05-13T08:13:27.660Z,15.11
2023-05-13T08:16:02.264Z,15.19
2023-05-13T08:18:30.658Z,15.26
2023-05-13T08:20:58.287Z,15.53
2023-05-13T08:23:40.371Z,15.11
2023-05-13T08:26:12.094Z,15.30
2023-05-13T08:28:39.902Z,15.60
2023-05-13T08:31:07.387Z,15.55
2023-05-13T08:33:36.909Z,15.57
2023-05-13T08:36:04.727Z,15.53
2023-05-13T08:38:33.576Z,15.61
2023-05-13T08:41:10.198Z,15.59
2023-05-13T08:43:39.123Z,15.63
2023-05-13T08:46:10.292Z,15.65
2023-05-13T08:48:41.956Z,15.57
2023-05-13T08:51:09.863Z,15.56
2023-05-13T08:53:39.627Z,15.40
2023-05-13T08:56:09.833Z,15.47
2023-05-13T08:58:44.571Z,15.80
2023-05-13T09:01:15.151Z,15.78
2023-05-13T09:04:01.506Z,15.89
2023-05-13T09:06:29.695Z,15.92
2023-05-13T09:08:57.706Z,15.93
2023-05-13T09:11:28.866Z,16.02
2023-05-13T09:14:00.537Z,16.27
2023-05-13T09:16:28.329Z,16.46
2023-05-13T09:19:08.551Z,16.78
2023-05-13T09:21:36.378Z,17.05
2023-05-13T09:24:13.274Z,17.34
2023-05-13T09:26:42.291Z,17.64
2023-05-13T09:29:21.395Z,17.40
2023-05-13T09:31:56.227Z,17.38
2023-05-13T09:34:29.198Z,17.67
2023-05-13T09:37:07.113Z,17.61
2023-05-13T09:39:41.377Z,17.40
2023-05-13T09:42:19.019Z,17.26
2023-05-13T09:44:47.000Z,16.93
2023-05-13T09:47:15.615Z,16.75
2023-05-13T09:49:45.130Z,16.81
2023-05-13T09:52:17.007Z,16.97
2023-05-13T09:54:47.520Z,17.02
2023-05-13T09:57:23.816Z,17.04
2023-05-13T09:59:59.855Z,16.87
2023-05-13T10:02:29.043Z,17.01
2023-05-13T10:04:57.107Z,17.05
2023-05-13T10:07:25.886Z,16.80
2023-05-13T10:09:58.302Z,16.90
2023-05-13T10:12:28.931Z,17.08
2023-05-13T10:15:02.028Z,17.20
2023-05-13T10:17:30.983Z,17.30
2023-05-13T10:20:01.828Z,17.38
2023-05-13T10:22:31.971Z,17.06
2023-05-13T10:25:00.817Z,17.26
2023-05-13T10:27:33.166Z,17.10
2023-05-13T10:30:09.635Z,17.14
2023-05-13T10:32:42.272Z,17.06
2023-05-13T10:35:43.154Z,17.11
2023-05-13T10:38:53.863Z,17.07
2023-05-13T10:42:24.621Z,17.38
2023-05-13T10:45:07.437Z,17.39
2023-05-13T10:47:36.197Z,17.56
2023-05-13T10:50:24.280Z,17.62
2023-05-13T10:52:59.160Z,17.54
2023-05-13T10:55:30.186Z,17.56
2023-05-13T10:58:16.047Z,17.48
2023-05-13T11:00:45.494Z,17.58
2023-05-13T11:03:21.861Z,17.50
2023-05-13T11:06:18.720Z,17.51
2023-05-13T11:08:52.508Z,17.70
2023-05-13T11:11:20.919Z,18.02
2023-05-13T11:14:02.296Z,17.71
2023-05-13T11:16:33.324Z,17.57
2023-05-13T11:19:04.636Z,17.72
2023-05-13T11:21:41.579Z,17.75
2023-05-13T11:24:17.614Z,17.76
2023-05-13T11:26:59.150Z,17.90
2023-05-13T11:29:37.030Z,17.79
2023-05-13T11:32:07.029Z,17.70
2023-05-13T11:34:34.796Z,17.78
2023-05-13T11:37:04.868Z,17.73
2023-05-13T11:39:33.302Z,18.13
2023-05-13T11:42:01.968Z,18.25
2023-05-13T11:44:29.498Z,18.38
2023-05-13T11:47:01.707Z,18.09
2023-05-13T11:49:42.743Z,18.20
2023-05-13T11:52:18.190Z,18.13
2023-05-13T11:54:48.545Z,18.24
2023-05-13T11:57:26.130Z,18.39
2023-05-13T12:00:06.890Z,18.34
2023-05-13T12:02:40.506Z,18.29
2023-05-13T12:05:13.575Z,18.38
2023-05-13T12:07:43.725Z,18.40
2023-05-13T12:10:11.923Z,18.31
2023-05-13T12:12:43.621Z,18.45
2023-05-13T12:15:15.987Z,18.33
2023-05-13T12:17:44.039Z,18.32
2023-05-13T12:20:16.853Z,18.46
2023-05-13T12:22:44.194Z,18.44
2023-05-13T12:25:33.053Z,18.45
2023-05-13T12:28:24.768Z,18.51
2023-05-13T12:30:56.349Z,18.40
2023-05-13T12:33:30.015Z,18.63
2023-05-13T12:36:21.218Z,18.81
2023-05-13T12:39:01.548Z,18.84
2023-05-13T12:41:35.047Z,18.59
2023-05-13T12:44:11.192Z,18.38
2023-05-13T12:46:39.801Z,18.44
2023-05-13T12:49:12.069Z,18.59
2023-05-13T12:51:39.492Z,18.49
2023-05-13T12:54:06.961Z,18.67
2023-05-13T12:56:36.961Z,19.17
2023-05-13T12:59:04.365Z,19.28
2023-05-13T13:01:32.206Z,19.15
2023-05-13T13:03:59.896Z,18.99
2023-05-13T13:06:31.047Z,18.75
2023-05-13T13:08:58.449Z,18.89
2023-05-13T13:11:27.939Z,18.83
2023-05-13T13:13:55.344Z,18.82
2023-05-13T13:16:23.277Z,18.84
2023-05-13T13:18:53.439Z,19.03
2023-05-13T13:21:25.357Z,19.14
2023-05-13T13:23:52.758Z,19.36
2023-05-13T13:26:20.128Z,19.22
2023-05-13T13:28:47.532Z,19.07
2023-05-13T13:31:14.995Z,19.38
2023-05-13T13:33:42.359Z,19.25
2023-05-13T13:36:09.790Z,19.14
2023-05-13T13:38:37.152Z,18.93
2023-05-13T13:41:04.539Z,19.01
2023-05-13T13:43:34.557Z,18.93
2023-05-13T13:46:02.193Z,19.02
2023-05-13T13:48:29.685Z,18.97
2023-05-13T13:50:58.569Z,19.07
2023-05-13T13:53:25.953Z,18.89
2023-05-13T13:55:53.405Z,18.87
2023-05-13T13:58:20.834Z,19.00
2023-05-13T14:00:51.893Z,19.08
2023-05-13T14:03:19.569Z,18.67
2023-05-13T14:05:47.075Z,18.34
2023-05-13T14:08:20.199Z,18.15
2023-05-13T14:10:47.876Z,18.10
2023-05-13T14:13:15.422Z,17.97
2023-05-13T14:15:42.929Z,17.73
2023-05-13T14:18:12.964Z,17.55
2023-05-13T14:20:42.884Z,17.33
2023-05-13T14:23:10.306Z,17.26
2023-05-13T14:25:46.546Z,17.16
2023-05-13T14:28:17.639Z,17.20
2023-05-13T14:30:45.102Z,17.37
2023-05-13T14:33:14.800Z,17.38
2023-05-13T14:35:42.153Z,17.14
2023-05-13T14:38:09.833Z,17.09
2023-05-13T14:40:38.886Z,17.13
2023-05-13T14:43:06.255Z,17.01
2023-05-13T14:45:35.814Z,16.88
2023-05-13T14:48:03.403Z,16.72
2023-05-13T14:50:33.485Z,16.58
2023-05-13T14:53:00.899Z,16.25
2023-05-13T14:55:31.163Z,16.18
2023-05-13T14:57:58.593Z,16.14
2023-05-13T15:00:26.464Z,15.89
2023-05-13T15:02:54.325Z,15.82
2023-05-13T15:05:21.889Z,15.69
2023-05-13T15:07:52.414Z,15.46
2023-05-13T15:10:19.917Z,15.20
2023-05-13T15:12:47.436Z,15.06
2023-05-13T15:15:14.839Z,15.05
2023-05-13T15:17:59.966Z,15.02
2023-05-13T15:20:28.607Z,14.99
2023-05-13T15:22:57.804Z,15.02
2023-05-13T15:25:27.419Z,14.92
2023-05-13T15:27:54.808Z,14.83
2023-05-13T15:30:22.630Z,14.53
2023-05-13T15:32:50.470Z,14.29
2023-05-13T15:35:17.975Z,13.93
2023-05-13T15:37:45.415Z,13.72
2023-05-13T15:40:12.985Z,13.61
2023-05-13T15:42:41.189Z,13.59
2023-05-13T15:45:08.927Z,13.63
2023-05-13T15:47:37.597Z,13.64
2023-05-13T15:50:06.072Z,13.73
2023-05-13T15:52:33.551Z,13.81
2023-05-13T15:55:00.975Z,13.87
2023-05-13T15:57:28.393Z,13.96
2023-05-13T15:59:55.752Z,14.02
2023-05-13T16:02:23.080Z,14.12
2023-05-13T16:04:53.610Z,14.19
2023-05-13T16:07:21.067Z,14.17
2023-05-13T16:09:50.815Z,14.26
2023-05-13T16:12:18.221Z,14.25
2023-05-13T16:14:45.691Z,14.23
2023-05-13T16:17:18.349Z,14.29
2023-05-13T16:19:45.830Z,14.50
2023-05-13T16:22:34.149Z,14.48
2023-05-13T16:25:03.932Z,14.47
2023-05-13T16:27:32.470Z,14.50
2023-05-13T16:30:01.197Z,14.42
2023-05-13T16:32:29.493Z,14.43
2023-05-13T16:35:01.352Z,14.39
2023-05-13T16:37:29.765Z,14.32
2023-05-13T16:39:57.575Z,14.39
2023-05-13T16:42:27.584Z,14.30
2023-05-13T16:44:54.978Z,14.32
2023-05-13T16:47:22.640Z,14.34
2023-05-13T16:49:50.278Z,14.36
2023-05-13T16:52:17.654Z,14.37
2023-05-13T16:54:45.157Z,14.41
2023-05-13T16:57:20.003Z,14.40
2023-05-13T16:59:47.351Z,14.43
2023-05-13T17:02:17.759Z,14.40
2023-05-13T17:04:45.255Z,14.53
2023-05-13T17:07:12.578Z,14.49
2023-05-13T17:09:42.386Z,14.48
2023-05-13T17:12:09.760Z,14.50
2023-05-13T17:14:37.195Z,14.53
2023-05-13T17:17:05.084Z,14.54
2023-05-13T17:19:32.801Z,14.53
2023-05-13T17:22:00.566Z,14.50
2023-05-13T17:24:31.728Z,14.52
2023-05-13T17:26:59.316Z,14.54
2023-05-13T17:29:26.687Z,14.56
2023-05-13T17:31:54.280Z,14.54
2023-05-13T17:34:21.665Z,14.53
2023-05-13T17:36:50.212Z,14.50
2023-05-13T17:39:17.833Z,14.45
2023-05-13T17:41:46.062Z,14.46
2023-05-13T17:44:13.482Z,14.49
2023-05-13T17:46:43.669Z,14.52
2023-05-13T17:49:11.313Z,14.50
2023-05-13T17:51:38.916Z,14.54
2023-05-13T17:54:06.336Z,14.57
2023-05-13T17:56:33.717Z,14.54
2023-05-13T17:59:03.280Z,14.47
2023-05-13T18:01:30.869Z,14.44
2023-05-13T18:03:58.286Z,14.46
2023-05-13T18:06:28.034Z,14.53
2023-05-13T18:08:55.584Z,14.54
2023-05-13T18:11:22.935Z,14.54
2023-05-13T18:13:50.320Z,14.50
2023-05-13T18:16:19.260Z,14.53
2023-05-13T18:18:48.710Z,14.51
2023-05-13T18:21:16.188Z,14.45
2023-05-13T18:23:46.610Z,14.40
2023-05-13T18:26:14.062Z,14.47
2023-05-13T18:28:42.459Z,14.49
2023-05-13T18:31:12.182Z,14.56
2023-05-13T18:33:39.653Z,14.47
2023-05-13T18:36:08.730Z,14.41
2023-05-13T18:38:37.333Z,14.35
2023-05-13T18:41:05.105Z,14.38
2023-05-13T18:43:32.559Z,14.32
2023-05-13T18:46:02.637Z,14.26
2023-05-13T18:48:30.110Z,14.31
2023-05-13T18:50:57.455Z,14.36
2023-05-13T18:53:24.938Z,14.46
2023-05-13T18:55:57.988Z,14.46
2023-05-13T18:58:26.738Z,14.50
2023-05-13T19:00:54.146Z,14.55
2023-05-13T19:03:24.009Z,14.43
2023-05-13T19:05:52.172Z,14.42
2023-05-13T19:08:25.105Z,14.32
2023-05-13T19:10:52.549Z,14.35
2023-05-13T19:13:22.211Z,14.33
2023-05-13T19:15:49.594Z,14.29
2023-05-13T19:18:17.149Z,14.27
2023-05-13T19:20:46.392Z,14.30
2023-05-13T19:23:14.512Z,14.22
2023-05-13T19:25:45.118Z,14.17
2023-05-13T19:28:20.552Z,14.27
2023-05-13T19:30:47.965Z,14.39
2023-05-13T19:33:15.396Z,14.47
2023-05-13T19:35:45.669Z,14.43
2023-05-13T19:38:15.607Z,14.39
2023-05-13T19:40:45.401Z,14.29
2023-05-13T19:43:13.148Z,14.25
2023-05-13T19:45:40.610Z,14.38
2023-05-13T19:48:10.172Z,14.43
2023-05-13T19:50:37.625Z,14.43
2023-05-13T19:53:05.091Z,14.37
2023-05-13T19:55:32.489Z,14.46
2023-05-13T19:57:59.890Z,14.36
2023-05-13T20:00:27.297Z,14.36
2023-05-13T20:02:57.437Z,14.40
2023-05-13T20:05:24.858Z,14.29
2023-05-13T20:07:52.233Z,14.26
2023-05-13T20:10:19.701Z,14.33
2023-05-13T20:12:47.235Z,14.26
2023-05-13T20:15:16.601Z,14.24
2023-05-13T20:17:45.465Z,14.27
2023-05-13T20:20:13.042Z,14.27
2023-05-13T20:22:40.394Z,14.31
2023-05-13T20:25:08.141Z,14.47
2023-05-13T20:27:35.559Z,14.53
2023-05-13T20:30:03.189Z,14.51
2023-05-13T20:32:31.515Z,14.45
2023-05-13T20:34:58.885Z,14.44
2023-05-13T20:37:26.222Z,14.33
2023-05-13T20:39:54.053Z,14.26
2023-05-13T20:42:22.625Z,14.26
2023-05-13T20:44:51.578Z,14.22
2023-05-13T20:47:20.642Z,14.16
2023-05-13T20:49:48.055Z,14.23
2023-05-13T20:52:15.515Z,14.23
2023-05-13T20:54:42.863Z,14.21
2023-05-13T20:57:10.235Z,14.19
2023-05-13T20:59:37.871Z,14.19
2023-05-13T21:02:05.379Z,14.18
2023-05-13T21:04:32.749Z,14.16
2023-05-13T21:07:00.162Z,14.12
2023-05-13T21:09:27.472Z,14.09
2023-05-13T21:11:54.813Z,14.03
2023-05-13T21:14:22.250Z,14.05
2023-05-13T21:16:49.614Z,14.15
2023-05-13T21:19:21.957Z,14.15
2023-05-13T21:21:49.745Z,14.20
2023-05-13T21:24:18.714Z,14.35
2023-05-13T21:26:46.843Z,14.26
2023-05-13T21:29:14.198Z,14.30
2023-05-13T21:31:41.718Z,14.32
2023-05-13T21:34:09.153Z,14.31
2023-05-13T21:36:38.963Z,14.35
2023-05-13T21:39:07.740Z,14.37
2023-05-13T21:41:35.867Z,14.40
2023-05-13T21:44:03.463Z,14.41
2023-05-13T21:46:30.819Z,14.55
2023-05-13T21:49:01.804Z,14.58
2023-05-13T21:51:29.275Z,14.59
2023-05-13T21:53:56.636Z,14.50
2023-05-13T21:56:24.076Z,14.36
2023-05-13T21:58:51.423Z,14.31
2023-05-13T22:01:18.907Z,14.26
2023-05-13T22:03:46.402Z,14.31
2023-05-13T22:06:14.269Z,14.28
2023-05-13T22:08:41.590Z,14.25
2023-05-13T22:11:08.933Z,14.04
2023-05-13T22:13:36.379Z,13.99
2023-05-13T22:16:04.304Z,13.93
2023-05-13T22:18:31.808Z,13.97
2023-05-13T22:21:00.773Z,13.94
2023-05-13T22:23:28.097Z,13.86
2023-05-13T22:25:55.631Z,13.84
2023-05-13T22:28:23.134Z,13.91
2023-05-13T22:30:51.740Z,13.84
2023-05-13T22:33:19.201Z,13.82
2023-05-13T22:35:47.245Z,13.76
2023-05-13T22:38:14.723Z,13.74
2023-05-13T22:40:42.311Z,13.75
2023-05-13T22:43:09.641Z,13.73
2023-05-13T22:45:37.792Z,13.71
2023-05-13T22:48:05.432Z,13.76
2023-05-13T22:50:32.859Z,13.80
2023-05-13T22:53:00.252Z,13.83
2023-05-13T22:55:27.693Z,13.77
2023-05-13T22:57:55.014Z,13.79
2023-05-13T23:00:22.722Z,13.75
2023-05-13T23:02:50.365Z,13.63
2023-05-13T23:05:17.787Z,13.57
2023-05-13T23:07:45.131Z,13.49
2023-05-13T23:10:12.451Z,13.53
2023-05-13T23:12:39.867Z,13.63
2023-05-13T23:15:08.376Z,13.67
2023-05-13T23:17:36.041Z,13.66
2023-05-13T23:20:03.716Z,13.69
2023-05-13T23:22:31.576Z,13.65
2023-05-13T23:24:58.948Z,13.54
2023-05-13T23:27:26.287Z,13.44
2023-05-13T23:29:53.637Z,13.46
2023-05-13T23:32:21.050Z,13.44
2023-05-13T23:34:48.432Z,13.41
2023-05-13T23:37:15.835Z,13.49
2023-05-13T23:39:43.651Z,13.51
2023-05-13T23:42:11.456Z,13.54
2023-05-13T23:44:39.209Z,13.52
2023-05-13T23:47:06.617Z,13.48
2023-05-13T23:49:33.946Z,13.45
2023-05-13T23:52:01.284Z,13.49
2023-05-13T23:54:28.634Z,13.51
2023-05-13T23:56:56.010Z,13.61
2023-05-13T23:59:23.375Z,13.50
